createdAt,value
2023-03-29T00:00:54.134Z,0.72
2023-03-29T00:06:04.913Z,0.48
2023-03-29T00:11:09.571Z,0.31
2023-03-29T00:16:15.179Z,0.42
2023-03-29T00:21:19.382Z,0.40
2023-03-29T00:26:24.911Z,0.40
2023-03-29T00:31:31.925Z,0.55
2023-03-29T00:36:40.263Z,0.48
2023-03-29T00:41:45.997Z,0.42
2023-03-29T00:46:51.585Z,0.58
2023-03-29T00:51:56.029Z,0.68
2023-03-29T00:57:04.162Z,0.60
2023-03-29T01:02:10.601Z,0.25
2023-03-29T01:07:21.850Z,0.34
2023-03-29T01:12:30.785Z,0.50
2023-03-29T01:17:36.306Z,0.59
2023-03-29T01:22:51.453Z,0.74
2023-03-29T01:28:04.900Z,0.80
2023-03-29T01:33:15.303Z,0.63
2023-03-29T01:38:24.645Z,0.45
2023-03-29T01:43:36.296Z,0.42
2023-03-29T01:48:49.250Z,0.52
2023-03-29T01:53:59.775Z,0.55
2023-03-29T01:59:09.819Z,0.55
2023-03-29T02:04:16.131Z,0.38
2023-03-29T02:09:20.319Z,0.54
2023-03-29T02:14:28.932Z,0.39
2023-03-29T02:19:33.368Z,0.29
2023-03-29T02:24:40.966Z,0.46
2023-03-29T02:29:48.247Z,0.46
2023-03-29T02:34:57.930Z,0.35
2023-03-29T02:40:08.089Z,0.55
2023-03-29T02:45:21.973Z,0.26
2023-03-29T02:50:29.020Z,0.29
2023-03-29T02:55:36.737Z,0.40
2023-03-29T03:00:46.965Z,0.37
2023-03-29T03:05:53.178Z,0.26
2023-03-29T03:10:58.436Z,0.68
2023-03-29T03:16:04.833Z,0.69
2023-03-29T03:21:10.332Z,0.38
2023-03-29T03:26:15.454Z,0.29
2023-03-29T03:31:22.662Z,0.54
2023-03-29T03:36:49.531Z,0.39
2023-03-29T03:41:53.602Z,-0.29
2023-03-29T03:46:59.537Z,0.04
2023-03-29T03:52:03.767Z,0.39
2023-03-29T03:57:08.867Z,-0.33
2023-03-29T04:02:23.618Z,-0.74
2023-03-29T04:07:28.800Z,-0.76
2023-03-29T04:13:08.423Z,-0.94
2023-03-29T04:18:27.185Z,-1.05
2023-03-29T04:29:27.866Z,-0.54
2023-03-29T04:34:45.941Z,-0.31
2023-03-29T04:39:52.553Z,-0.22
2023-03-29T04:44:57.820Z,0.08
2023-03-29T04:50:19.658Z,0.12
2023-03-29T05:01:19.012Z,0.20
2023-03-29T05:06:33.714Z,0.37
2023-03-29T05:11:39.818Z,-0.10
2023-03-29T05:22:14.802Z,-1.04
2023-03-29T05:27:19.299Z,-1.40
2023-03-29T05:32:38.384Z,-0.90
2023-03-29T05:43:17.392Z,-0.68
2023-03-29T05:48:24.230Z,-0.20
2023-03-29T05:53:33.408Z,-0.03
2023-03-29T05:58:39.972Z,0.11
2023-03-29T06:03:47.653Z,0.25
2023-03-29T06:14:42.780Z,0.39
2023-03-29T06:20:06.376Z,0.65
2023-03-29T06:25:12.593Z,0.63
2023-03-29T06:30:22.208Z,0.92
2023-03-29T06:35:30.362Z,1.25
2023-03-29T06:40:44.975Z,1.47
2023-03-29T06:45:50.433Z,1.64
2023-03-29T06:51:14.429Z,1.26
2023-03-29T06:56:23.376Z,1.99
2023-03-29T07:01:39.105Z,1.93
2023-03-29T07:07:04.260Z,1.63
2023-03-29T07:12:14.249Z,1.96
2023-03-29T07:17:19.341Z,2.43
2023-03-29T07:22:24.052Z,2.26
2023-03-29T07:27:35.133Z,1.95
2023-03-29T07:32:40.253Z,2.48
2023-03-29T07:38:03.525Z,2.88
2023-03-29T07:43:11.240Z,3.26
2023-03-29T07:48:17.930Z,3.07
2023-03-29T07:53:36.476Z,3.46
2023-03-29T07:58:52.032Z,4.20
2023-03-29T08:03:57.231Z,4.36
2023-03-29T08:14:43.743Z,7.38
2023-03-29T08:19:53.432Z,7.89
2023-03-29T08:25:00.547Z,5.85
2023-03-29T08:30:12.659Z,5.48
2023-03-29T08:35:17.502Z,4.95
2023-03-29T08:40:44.331Z,6.45
2023-03-29T08:46:05.458Z,6.36
2023-03-29T08:51:21.676Z,5.68
2023-03-29T08:56:30.314Z,5.28
2023-03-29T09:02:16.762Z,4.39
2023-03-29T09:07:26.470Z,4.24
2023-03-29T09:12:43.730Z,4.65
2023-03-29T09:18:00.583Z,5.44
2023-03-29T09:23:24.184Z,5.17
2023-03-29T09:28:56.138Z,5.02
2023-03-29T09:34:14.383Z,5.71
2023-03-29T09:39:35.435Z,6.04
2023-03-29T09:44:51.758Z,5.60
2023-03-29T09:50:19.839Z,6.63
2023-03-29T09:55:40.879Z,6.78
2023-03-29T10:00:53.786Z,7.28
2023-03-29T10:06:05.317Z,8.40
2023-03-29T10:11:16.372Z,8.76
2023-03-29T10:16:23.708Z,9.56
2023-03-29T10:21:31.147Z,10.14
2023-03-29T10:26:39.062Z,10.64
2023-03-29T10:31:43.418Z,10.56
2023-03-29T10:36:55.965Z,10.51
2023-03-29T10:42:01.130Z,10.85
2023-03-29T10:47:17.068Z,10.21
2023-03-29T10:52:23.290Z,10.40
2023-03-29T10:57:35.411Z,10.85
2023-03-29T11:03:11.996Z,10.85
2023-03-29T11:08:43.546Z,11.67
2023-03-29T11:13:58.036Z,11.62
2023-03-29T11:19:20.926Z,11.34
2023-03-29T11:24:58.830Z,10.89
2023-03-29T11:30:10.142Z,9.68
2023-03-29T11:35:31.676Z,11.05
2023-03-29T11:40:47.444Z,10.94
2023-03-29T11:45:57.413Z,11.71
2023-03-29T11:51:11.654Z,11.85
2023-03-29T11:56:26.299Z,10.61
2023-03-29T12:01:37.978Z,10.48
2023-03-29T12:06:48.160Z,10.32
2023-03-29T12:11:58.510Z,10.83
2023-03-29T12:17:07.740Z,10.67
2023-03-29T12:22:14.203Z,10.74
2023-03-29T12:27:29.203Z,10.54
2023-03-29T12:32:50.562Z,10.68
2023-03-29T12:38:25.030Z,10.67
2023-03-29T12:43:48.257Z,10.13
2023-03-29T12:49:22.036Z,10.37
2023-03-29T12:54:30.833Z,11.11
2023-03-29T12:59:52.384Z,10.30
2023-03-29T13:05:01.201Z,11.20
2023-03-29T13:15:39.080Z,10.69
2023-03-29T13:20:55.242Z,10.33
2023-03-29T13:26:23.880Z,10.37
2023-03-29T13:31:37.481Z,10.56
2023-03-29T13:36:59.801Z,10.87
2023-03-29T13:42:19.079Z,10.48
2023-03-29T13:47:43.157Z,10.64
2023-03-29T13:53:02.576Z,10.83
2023-03-29T13:58:13.677Z,11.06
2023-03-29T14:03:26.414Z,11.09
2023-03-29T14:08:38.124Z,10.57
2023-03-29T14:13:42.358Z,10.15
2023-03-29T14:18:51.168Z,10.36
2023-03-29T14:23:59.725Z,10.29
2023-03-29T14:29:04.537Z,9.92
2023-03-29T14:34:18.786Z,9.75
2023-03-29T14:39:26.151Z,10.05
2023-03-29T14:44:33.605Z,9.98
2023-03-29T14:49:39.088Z,10.05
2023-03-29T14:54:50.431Z,9.52
2023-03-29T14:59:59.567Z,9.54
2023-03-29T15:05:08.006Z,9.34
2023-03-29T15:10:20.804Z,9.77
2023-03-29T15:20:55.653Z,9.36
2023-03-29T15:26:11.122Z,8.94
2023-03-29T15:31:17.971Z,8.40
2023-03-29T15:36:22.223Z,8.10
2023-03-29T15:41:28.713Z,7.61
2023-03-29T15:46:33.607Z,7.34
2023-03-29T15:51:37.946Z,7.25
2023-03-29T15:56:49.663Z,7.04
2023-03-29T16:01:54.633Z,6.79
2023-03-29T16:06:59.036Z,6.79
2023-03-29T16:12:04.919Z,6.70
2023-03-29T16:17:08.980Z,6.52
2023-03-29T16:22:13.311Z,6.45
2023-03-29T16:27:19.008Z,6.61
2023-03-29T16:32:23.138Z,6.90
2023-03-29T16:37:29.676Z,6.70
2023-03-29T16:42:35.173Z,6.57
2023-03-29T16:47:39.551Z,6.58
2023-03-29T16:52:44.007Z,6.47
2023-03-29T16:57:50.964Z,6.13
2023-03-29T17:02:56.142Z,5.84
2023-03-29T17:08:00.247Z,5.90
2023-03-29T17:13:05.757Z,6.12
2023-03-29T17:18:10.372Z,5.99
2023-03-29T17:23:15.954Z,5.77
2023-03-29T17:28:22.413Z,5.87
2023-03-29T17:33:28.237Z,5.88
2023-03-29T17:38:34.402Z,5.65
2023-03-29T17:43:40.038Z,5.68
2023-03-29T17:48:44.061Z,5.69
2023-03-29T17:53:49.156Z,5.80
2023-03-29T17:58:56.173Z,5.40
2023-03-29T18:04:00.407Z,5.54
2023-03-29T18:09:04.761Z,5.24
2023-03-29T18:14:10.307Z,5.12
2023-03-29T18:19:14.602Z,5.26
2023-03-29T18:24:19.581Z,4.94
2023-03-29T18:29:25.173Z,5.18
2023-03-29T18:34:29.890Z,5.38
2023-03-29T18:39:35.927Z,4.99
2023-03-29T18:44:42.440Z,5.16
2023-03-29T18:49:47.359Z,5.11
2023-03-29T18:54:51.586Z,4.78
2023-03-29T18:59:57.139Z,4.43
2023-03-29T19:05:01.546Z,4.47
2023-03-29T19:10:07.523Z,4.53
2023-03-29T19:15:14.600Z,4.24
2023-03-29T19:20:20.077Z,4.18
2023-03-29T19:25:24.247Z,3.78
2023-03-29T19:30:30.945Z,3.65
2023-03-29T19:35:36.464Z,3.80
2023-03-29T19:40:47.151Z,3.90
2023-03-29T19:45:54.496Z,3.66
2023-03-29T19:51:05.357Z,3.29
2023-03-29T19:56:14.552Z,2.95
2023-03-29T20:01:22.088Z,2.57
2023-03-29T20:06:26.376Z,2.65
2023-03-29T20:11:30.599Z,2.52
2023-03-29T20:16:36.851Z,2.81
2023-03-29T20:21:41.070Z,2.55
2023-03-29T20:26:45.185Z,2.75
2023-03-29T20:31:50.743Z,2.80
2023-03-29T20:36:55.697Z,2.60
2023-03-29T20:42:00.604Z,2.46
2023-03-29T20:47:08.360Z,2.40
2023-03-29T20:52:15.548Z,2.44
2023-03-29T20:57:22.020Z,2.48
2023-03-29T21:02:27.868Z,2.49
2023-03-29T21:07:32.453Z,2.45
2023-03-29T21:13:00.511Z,2.52
2023-03-29T21:18:07.156Z,2.21
2023-03-29T21:23:11.337Z,2.36
2023-03-29T21:28:15.676Z,2.46
2023-03-29T21:33:21.863Z,2.44
2023-03-29T21:38:26.035Z,2.12
2023-03-29T21:43:30.387Z,2.06
2023-03-29T21:54:03.862Z,2.01
2023-03-29T21:59:08.162Z,2.03
2023-03-29T22:04:19.805Z,2.45
2023-03-29T22:09:29.774Z,2.05
2023-03-29T22:14:35.282Z,2.09
2023-03-29T22:19:41.916Z,1.84
2023-03-29T22:24:46.227Z,1.42
2023-03-29T22:29:50.398Z,1.74
2023-03-29T22:34:55.980Z,1.66
2023-03-29T22:40:01.123Z,1.61
2023-03-29T22:45:06.523Z,1.39
2023-03-29T22:50:12.730Z,1.50
2023-03-29T22:55:19.386Z,1.69
2023-03-29T23:00:23.865Z,1.63
2023-03-29T23:05:29.249Z,1.45
2023-03-29T23:10:33.348Z,1.55
2023-03-29T23:15:38.664Z,1.63
2023-03-29T23:20:44.422Z,1.23
2023-03-29T23:25:50.534Z,1.04
2023-03-29T23:31:03.218Z,0.93
2023-03-29T23:36:11.370Z,0.84
2023-03-29T23:41:19.302Z,0.93
2023-03-29T23:46:23.267Z,1.08
2023-03-29T23:51:29.442Z,1.27
2023-03-29T23:56:33.504Z,1.18
